Wetterdaten: Woche 26.10.15 - 01.11.15 (KW44)
Datum Zeit Temp. A. Feuchte A. Luftdruck Regen Wind Richtung Sonnenschein ET UV Solar Taupunkt Windchill Windben Empfang
26.10.2015 00:00 9,9 C 96 % 1025,1 hPa 0,0 l/m 1,5 km/h (1 Bft) O 0,00 h 0,000 mm 0,0 UV-I 0 W/m 9,2 C 9,9 C 3,7 km/h (1 Bft) 98,51 %
26.10.2015 01:00 9,6 C 96 % 1024,7 hPa 0,0 l/m 1,4 km/h (1 Bft) O-NO 0,00 h 0,000 mm 0,0 UV-I 0 W/m 9,0 C 9,6 C 3,5 km/h (1 Bft) 99,00 %
26.10.2015 02:00 9,4 C 97 % 1024,2 hPa 0,0 l/m 1,7 km/h (1 Bft) O 0,00 h 0,000 mm 0,0 UV-I 0 W/m 9,0 C 9,4 C 4,4 km/h (1 Bft) 99,22 %
26.10.2015 03:00 9,4 C 97 % 1023,6 hPa 0,0 l/m 2,7 km/h (1 Bft) O 0,00 h 0,000 mm 0,0 UV-I 0 W/m 8,9 C 9,4 C 6,0 km/h (2 Bft) 99,15 %
26.10.2015 04:00 9,5 C 96 % 1023,3 hPa 0,0 l/m 5,8 km/h (2 Bft) O 0,00 h 0,000 mm 0,0 UV-I 0 W/m 8,9 C 9,5 C 11,4 km/h (2 Bft) 98,91 %
26.10.2015 05:00 9,6 C 94 % 1022,5 hPa 0,0 l/m 7,3 km/h (2 Bft) O 0,00 h 0,000 mm 0,0 UV-I 0 W/m 8,7 C 8,9 C 15,3 km/h (3 Bft) 99,64 %
26.10.2015 06:00 9,0 C 95 % 1021,7 hPa 0,0 l/m 5,5 km/h (1 Bft) O 0,00 h 0,000 mm 0,0 UV-I 8 W/m 8,1 C 8,5 C 11,8 km/h (2 Bft) 99,08 %
26.10.2015 07:00 8,9 C 93 % 1021,7 hPa 0,0 l/m 7,7 km/h (2 Bft) O 0,17 h 0,000 mm 0,0 UV-I 61 W/m 7,9 C 7,5 C 15,6 km/h (3 Bft) 98,80 %
26.10.2015 08:00 9,6 C 90 % 1021,7 hPa 0,0 l/m 7,7 km/h (2 Bft) O 1,00 h 0,025 mm 0,5 UV-I 183 W/m 7,9 C 8,4 C 17,0 km/h (3 Bft) 99,13 %
26.10.2015 09:00 10,7 C 85 % 1021,5 hPa 0,0 l/m 11,7 km/h (2 Bft) O 1,00 h 0,102 mm 0,9 UV-I 279 W/m 8,3 C 7,5 C 21,3 km/h (4 Bft) 99,02 %
26.10.2015 10:00 12,2 C 80 % 1021,0 hPa 0,0 l/m 15,5 km/h (3 Bft) O 1,00 h 0,152 mm 1,5 UV-I 426 W/m 8,9 C 7,7 C 25,3 km/h (4 Bft) 99,73 %
26.10.2015 11:00 13,1 C 76 % 1020,7 hPa 0,0 l/m 14,3 km/h (3 Bft) O 1,00 h 0,254 mm 1,8 UV-I 470 W/m 9,0 C 9,2 C 24,4 km/h (4 Bft) 99,34 %
26.10.2015 12:00 13,6 C 74 % 1020,2 hPa 0,0 l/m 14,8 km/h (3 Bft) O-NO 1,00 h 0,280 mm 1,7 UV-I 459 W/m 9,0 C 9,6 C 24,9 km/h (4 Bft) 99,50 %
26.10.2015 13:00 13,9 C 73 % 1019,6 hPa 0,0 l/m 14,4 km/h (3 Bft) O-NO 1,00 h 0,279 mm 1,3 UV-I 413 W/m 9,2 C 10,1 C 25,3 km/h (4 Bft) 99,14 %
26.10.2015 14:00 13,9 C 75 % 1019,3 hPa 0,0 l/m 12,8 km/h (3 Bft) O 1,00 h 0,254 mm 0,8 UV-I 316 W/m 9,4 C 10,7 C 22,5 km/h (4 Bft) 99,22 %
26.10.2015 15:00 13,5 C 75 % 1019,2 hPa 0,0 l/m 12,9 km/h (3 Bft) O-NO 0,25 h 0,203 mm 0,5 UV-I 167 W/m 9,2 C 10,2 C 23,4 km/h (4 Bft) 98,87 %
26.10.2015 16:00 12,5 C 78 % 1019,2 hPa 0,0 l/m 11,5 km/h (2 Bft) O 0,00 h 0,127 mm 0,0 UV-I 40 W/m 8,7 C 9,7 C 21,6 km/h (4 Bft) 99,14 %
26.10.2015 17:00 11,5 C 80 % 1019,2 hPa 0,0 l/m 13,5 km/h (3 Bft) O 0,00 h 0,051 mm 0,0 UV-I 4 W/m 8,1 C 7,5 C 22,4 km/h (4 Bft) 99,08 %
26.10.2015 18:00 10,6 C 82 % 1019,5 hPa 0,0 l/m 13,0 km/h (3 Bft) O-NO 0,00 h 0,026 mm 0,0 UV-I 0 W/m 7,7 C 6,8 C 21,6 km/h (4 Bft) 98,80 %
26.10.2015 19:00 9,8 C 85 % 1019,4 hPa 0,0 l/m 10,0 km/h (2 Bft) O-NO 0,00 h 0,025 mm 0,0 UV-I 0 W/m 7,5 C 7,5 C 17,8 km/h (3 Bft) 98,79 %
26.10.2015 20:00 9,1 C 89 % 1019,3 hPa 0,0 l/m 8,6 km/h (2 Bft) O 0,00 h 0,025 mm 0,0 UV-I 0 W/m 7,3 C 7,4 C 16,0 km/h (3 Bft) 98,87 %
26.10.2015 21:00 8,5 C 92 % 1019,2 hPa 0,0 l/m 5,8 km/h (2 Bft) O 0,00 h 0,000 mm 0,0 UV-I 0 W/m 7,2 C 8,2 C 12,6 km/h (3 Bft) 99,28 %
26.10.2015 22:00 8,9 C 92 % 1019,1 hPa 0,0 l/m 7,7 km/h (2 Bft) O 0,00 h 0,000 mm 0,0 UV-I 0 W/m 7,7 C 7,9 C 14,9 km/h (3 Bft) 99,54 %
26.10.2015 23:00 9,3 C 91 % 1018,9 hPa 0,0 l/m 6,7 km/h (2 Bft) O 0,00 h 0,000 mm 0,0 UV-I 0 W/m 7,9 C 8,9 C 14,1 km/h (3 Bft) 99,15 %
27.10.2015 00:00 9,4 C 91 % 1018,8 hPa 0,0 l/m 9,3 km/h (2 Bft) O 0,00 h 0,000 mm 0,0 UV-I 0 W/m 8,0 C 7,5 C 17,0 km/h (3 Bft) 99,42 %
27.10.2015 01:00 9,6 C 90 % 1018,7 hPa 0,0 l/m 12,1 km/h (2 Bft) NO 0,00 h 0,000 mm 0,0 UV-I 0 W/m 8,0 C 6,1 C 20,2 km/h (4 Bft) 99,00 %
27.10.2015 02:00 9,6 C 90 % 1018,4 hPa 0,0 l/m 11,6 km/h (2 Bft) O 0,00 h 0,025 mm 0,0 UV-I 0 W/m 8,0 C 6,3 C 20,6 km/h (4 Bft) 99,59 %
27.10.2015 03:00 9,5 C 90 % 1018,2 hPa 0,0 l/m 9,8 km/h (2 Bft) O 0,00 h 0,026 mm 0,0 UV-I 0 W/m 7,9 C 7,2 C 17,8 km/h (3 Bft) 99,22 %
27.10.2015 04:00 9,3 C 91 % 1018,1 hPa 0,0 l/m 6,9 km/h (2 Bft) O 0,00 h 0,000 mm 0,0 UV-I 0 W/m 7,9 C 8,6 C 14,4 km/h (3 Bft) 99,14 %
27.10.2015 05:00 8,8 C 92 % 1018,0 hPa 0,0 l/m 4,8 km/h (1 Bft) O-NO 0,00 h 0,000 mm 0,0 UV-I 0 W/m 7,6 C 8,8 C 11,2 km/h (2 Bft) 99,04 %
27.10.2015 06:00 8,5 C 93 % 1018,2 hPa 0,0 l/m 5,0 km/h (1 Bft) O 0,00 h 0,000 mm 0,0 UV-I 3 W/m 7,4 C 8,5 C 10,8 km/h (2 Bft) 99,08 %
27.10.2015 07:00 8,4 C 94 % 1018,4 hPa 0,0 l/m 4,2 km/h (1 Bft) O 0,08 h 0,000 mm 0,0 UV-I 19 W/m 7,4 C 8,4 C 8,9 km/h (2 Bft) 99,23 %
27.10.2015 08:00 8,8 C 93 % 1018,6 hPa 0,0 l/m 5,0 km/h (1 Bft) O 0,42 h 0,000 mm 0,0 UV-I 58 W/m 7,7 C 8,8 C 11,2 km/h (2 Bft) 98,79 %
27.10.2015 09:00 9,3 C 90 % 1018,7 hPa 0,0 l/m 8,2 km/h (2 Bft) O-NO 0,00 h 0,025 mm 0,3 UV-I 83 W/m 7,8 C 8,0 C 15,2 km/h (3 Bft) 99,59 %
27.10.2015 10:00 9,8 C 88 % 1018,8 hPa 0,0 l/m 9,6 km/h (2 Bft) O-NO 0,00 h 0,051 mm 0,6 UV-I 128 W/m 7,9 C 7,7 C 17,6 km/h (3 Bft) 99,29 %
27.10.2015 11:00 10,5 C 86 % 1018,5 hPa 0,0 l/m 8,6 km/h (2 Bft) O 0,00 h 0,076 mm 1,0 UV-I 196 W/m 8,2 C 9,0 C 16,5 km/h (3 Bft) 99,58 %
27.10.2015 12:00 11,7 C 83 % 1017,6 hPa 0,0 l/m 6,1 km/h (2 Bft) O-NO 0,83 h 0,102 mm 1,4 UV-I 369 W/m 8,9 C 11,4 C 13,0 km/h (3 Bft) 98,79 %
27.10.2015 13:00 13,2 C 79 % 1016,9 hPa 0,0 l/m 6,2 km/h (2 Bft) O-NO 0,92 h 0,203 mm 1,3 UV-I 402 W/m 9,6 C 12,7 C 12,8 km/h (3 Bft) 99,42 %
27.10.2015 14:00 13,8 C 78 % 1016,5 hPa 0,0 l/m 5,9 km/h (2 Bft) O 1,00 h 0,203 mm 0,7 UV-I 285 W/m 10,0 C 13,6 C 12,6 km/h (3 Bft) 99,42 %
27.10.2015 15:00 13,9 C 78 % 1016,2 hPa 0,0 l/m 5,9 km/h (2 Bft) O 0,17 h 0,153 mm 0,1 UV-I 142 W/m 10,0 C 13,7 C 11,7 km/h (2 Bft) 99,36 %
27.10.2015 16:00 12,9 C 80 % 1015,9 hPa 0,0 l/m 5,4 km/h (1 Bft) O 0,00 h 0,076 mm 0,0 UV-I 30 W/m 9,5 C 12,8 C 10,6 km/h (2 Bft) 99,50 %
27.10.2015 17:00 11,6 C 82 % 1015,9 hPa 0,0 l/m 6,1 km/h (2 Bft) O-NO 0,00 h 0,025 mm 0,0 UV-I 0 W/m 8,6 C 10,8 C 13,0 km/h (3 Bft) 99,18 %
27.10.2015 18:00 10,3 C 85 % 1015,9 hPa 0,0 l/m 2,7 km/h (1 Bft) O-NO 0,00 h 0,026 mm 0,0 UV-I 0 W/m 7,9 C 10,3 C 6,0 km/h (2 Bft) 98,99 %
27.10.2015 19:00 9,3 C 88 % 1015,8 hPa 0,0 l/m 2,1 km/h (1 Bft) O-NO 0,00 h 0,000 mm 0,0 UV-I 0 W/m 7,4 C 9,3 C 5,7 km/h (1 Bft) 99,42 %
27.10.2015 20:00 8,2 C 91 % 1015,8 hPa 0,0 l/m 1,1 km/h (0 Bft) O-NO 0,00 h 0,000 mm 0,0 UV-I 0 W/m 6,8 C 8,2 C 3,5 km/h (1 Bft) 99,17 %
27.10.2015 21:00 7,6 C 92 % 1015,8 hPa 0,0 l/m 0,8 km/h (0 Bft) O-NO 0,00 h 0,000 mm 0,0 UV-I 0 W/m 6,4 C 7,6 C 3,3 km/h (1 Bft) 99,28 %
27.10.2015 22:00 6,8 C 94 % 1015,8 hPa 0,0 l/m 0,3 km/h (0 Bft) N 0,00 h 0,000 mm 0,0 UV-I 0 W/m 5,9 C 6,8 C 1,5 km/h (1 Bft) 98,95 %
27.10.2015 23:00 5,4 C 96 % 1015,7 hPa 0,0 l/m 0,3 km/h (0 Bft) NO 0,00 h 0,000 mm 0,0 UV-I 0 W/m 4,8 C 5,4 C 1,6 km/h (1 Bft) 99,41 %
28.10.2015 00:00 4,9 C 96 % 1015,5 hPa 0,0 l/m 0,4 km/h (0 Bft) N 0,00 h 0,000 mm 0,0 UV-I 0 W/m 4,3 C 4,9 C 1,7 km/h (1 Bft) 98,98 %
28.10.2015 01:00 4,8 C 97 % 1015,4 hPa 0,0 l/m 0,4 km/h (0 Bft) O-NO 0,00 h 0,000 mm 0,0 UV-I 0 W/m 4,4 C 4,8 C 2,1 km/h (1 Bft) 99,10 %
28.10.2015 02:00 5,2 C 97 % 1014,8 hPa 0,0 l/m 1,3 km/h (1 Bft) O 0,00 h 0,000 mm 0,0 UV-I 0 W/m 4,7 C 5,2 C 3,7 km/h (1 Bft) 99,22 %
28.10.2015 03:00 5,1 C 97 % 1014,4 hPa 0,0 l/m 1,3 km/h (1 Bft) O 0,00 h 0,000 mm 0,0 UV-I 0 W/m 4,7 C 5,1 C 3,7 km/h (1 Bft) 99,06 %
28.10.2015 04:00 4,7 C 97 % 1014,2 hPa 0,0 l/m 0,8 km/h (0 Bft) O-NO 0,00 h 0,000 mm 0,0 UV-I 0 W/m 4,2 C 4,7 C 2,7 km/h (1 Bft) 99,02 %
28.10.2015 05:00 3,4 C 98 % 1014,1 hPa 0,0 l/m 0,7 km/h (0 Bft) O 0,00 h 0,000 mm 0,0 UV-I 0 W/m 3,0 C 3,4 C 2,8 km/h (1 Bft) 99,01 %
28.10.2015 06:00 4,7 C 98 % 1014,3 hPa 0,0 l/m 4,4 km/h (1 Bft) O-NO 0,00 h 0,000 mm 0,0 UV-I 4 W/m 4,4 C 4,7 C 8,3 km/h (2 Bft) 99,10 %
28.10.2015 07:00 5,1 C 98 % 1014,3 hPa 0,0 l/m 5,6 km/h (1 Bft) O-SO 0,08 h 0,000 mm 0,0 UV-I 18 W/m 4,8 C 4,9 C 12,0 km/h (2 Bft) 99,50 %
28.10.2015 08:00 5,7 C 98 % 1014,4 hPa 0,0 l/m 6,7 km/h (2 Bft) O 0,33 h 0,000 mm 0,0 UV-I 51 W/m 5,4 C 5,1 C 14,1 km/h (3 Bft) 99,28 %
28.10.2015 09:00 6,1 C 98 % 1014,2 hPa 0,0 l/m 6,0 km/h (2 Bft) O-NO 0,00 h 0,025 mm 0,5 UV-I 80 W/m 5,7 C 5,9 C 12,6 km/h (3 Bft) 99,65 %
28.10.2015 10:00 6,7 C 95 % 1013,9 hPa 0,0 l/m 6,2 km/h (2 Bft) O 0,00 h 0,026 mm 0,7 UV-I 131 W/m 6,0 C 6,5 C 12,9 km/h (3 Bft) 99,50 %
28.10.2015 11:00 7,6 C 93 % 1013,5 hPa 0,0 l/m 5,3 km/h (1 Bft) O 0,17 h 0,051 mm 1,1 UV-I 221 W/m 6,5 C 7,5 C 10,6 km/h (2 Bft) 98,99 %
28.10.2015 12:00 9,1 C 90 % 1012,8 hPa 0,0 l/m 3,5 km/h (1 Bft) O-NO 0,75 h 0,101 mm 1,5 UV-I 353 W/m 7,6 C 9,1 C 8,6 km/h (2 Bft) 99,73 %
28.10.2015 13:00 10,8 C 87 % 1012,1 hPa 0,0 l/m 3,8 km/h (1 Bft) O 1,00 h 0,153 mm 1,2 UV-I 355 W/m 8,7 C 10,8 C 8,7 km/h (2 Bft) 99,16 %
28.10.2015 14:00 12,5 C 82 % 1011,7 hPa 0,0 l/m 3,6 km/h (1 Bft) O 0,67 h 0,177 mm 0,7 UV-I 259 W/m 9,4 C 12,5 C 8,2 km/h (2 Bft) 99,44 %
28.10.2015 15:00 12,9 C 79 % 1011,4 hPa 0,0 l/m 6,2 km/h (2 Bft) O 0,00 h 0,127 mm 0,0 UV-I 141 W/m 9,5 C 12,7 C 11,7 km/h (2 Bft) 99,22 %
28.10.2015 16:00 11,5 C 85 % 1011,5 hPa 0,0 l/m 3,0 km/h (1 Bft) O-NO 0,00 h 0,077 mm 0,0 UV-I 18 W/m 9,0 C 11,5 C 7,0 km/h (2 Bft) 99,79 %
28.10.2015 17:00 10,5 C 87 % 1011,6 hPa 0,0 l/m 4,3 km/h (1 Bft) O 0,00 h 0,025 mm 0,0 UV-I 0 W/m 8,4 C 10,4 C 10,1 km/h (2 Bft) 99,01 %
28.10.2015 18:00 10,0 C 87 % 1011,6 hPa 0,0 l/m 7,6 km/h (2 Bft) O-SO 0,00 h 0,000 mm 0,0 UV-I 0 W/m 8,0 C 9,1 C 16,4 km/h (3 Bft) 99,57 %
28.10.2015 19:00 9,4 C 88 % 1011,5 hPa 0,0 l/m 12,5 km/h (3 Bft) O-NO 0,00 h 0,025 mm 0,0 UV-I 0 W/m 7,4 C 5,7 C 20,9 km/h (4 Bft) 98,72 %
28.10.2015 20:00 8,6 C 90 % 1011,6 hPa 0,0 l/m 9,1 km/h (2 Bft) O 0,00 h 0,026 mm 0,0 UV-I 0 W/m 7,1 C 6,6 C 17,6 km/h (3 Bft) 99,29 %
28.10.2015 21:00 7,9 C 92 % 1011,8 hPa 0,0 l/m 7,6 km/h (2 Bft) O-NO 0,00 h 0,000 mm 0,0 UV-I 0 W/m 6,7 C 6,6 C 14,2 km/h (3 Bft) 98,63 %
28.10.2015 22:00 7,8 C 94 % 1011,9 hPa 0,0 l/m 7,8 km/h (2 Bft) O 0,00 h 0,000 mm 0,0 UV-I 0 W/m 6,9 C 6,4 C 14,4 km/h (3 Bft) 99,36 %
28.10.2015 23:00 8,1 C 93 % 1012,1 hPa 0,0 l/m 7,6 km/h (2 Bft) O 0,00 h 0,000 mm 0,0 UV-I 0 W/m 7,1 C 7,0 C 14,1 km/h (3 Bft) 99,36 %
29.10.2015 00:00 8,0 C 93 % 1012,1 hPa 0,0 l/m 9,2 km/h (2 Bft) O 0,00 h 0,000 mm 0,0 UV-I 0 W/m 7,0 C 6,0 C 16,5 km/h (3 Bft) 99,43 %
29.10.2015 01:00 7,9 C 94 % 1012,2 hPa 0,0 l/m 8,9 km/h (2 Bft) O 0,00 h 0,000 mm 0,0 UV-I 0 W/m 6,9 C 6,0 C 16,4 km/h (3 Bft) 99,42 %
29.10.2015 02:00 7,8 C 94 % 1012,3 hPa 0,0 l/m 7,9 km/h (2 Bft) O 0,00 h 0,000 mm 0,0 UV-I 0 W/m 6,9 C 6,7 C 14,4 km/h (3 Bft) 99,44 %
29.10.2015 03:00 7,8 C 95 % 1012,8 hPa 0,0 l/m 4,3 km/h (1 Bft) O-NO 0,00 h 0,000 mm 0,0 UV-I 0 W/m 7,0 C 7,8 C 9,9 km/h (2 Bft) 99,57 %
29.10.2015 04:00 7,8 C 95 % 1013,7 hPa 0,0 l/m 0,5 km/h (0 Bft) SW 0,00 h 0,000 mm 0,0 UV-I 0 W/m 7,0 C 7,8 C 2,1 km/h (1 Bft) 99,05 %
29.10.2015 05:00 7,7 C 96 % 1014,5 hPa 0,0 l/m 1,1 km/h (1 Bft) W-SW 0,00 h 0,000 mm 0,0 UV-I 0 W/m 7,1 C 7,7 C 3,6 km/h (1 Bft) 99,09 %
29.10.2015 06:00 7,6 C 97 % 1015,0 hPa 0,0 l/m 0,2 km/h (0 Bft) S-SW 0,00 h 0,000 mm 0,0 UV-I 0 W/m 7,1 C 7,6 C 1,3 km/h (1 Bft) 99,30 %
29.10.2015 07:00 7,9 C 97 % 1015,9 hPa 0,0 l/m 1,9 km/h (1 Bft) W-NW 0,08 h 0,000 mm 0,0 UV-I 13 W/m 7,4 C 7,9 C 5,2 km/h (1 Bft) 99,22 %
29.10.2015 08:00 8,4 C 95 % 1016,7 hPa 0,0 l/m 2,1 km/h (1 Bft) W 0,17 h 0,000 mm 0,0 UV-I 41 W/m 7,6 C 8,4 C 4,8 km/h (1 Bft) 99,46 %
29.10.2015 09:00 8,9 C 93 % 1017,2 hPa 0,0 l/m 2,4 km/h (1 Bft) W 0,00 h 0,025 mm 0,0 UV-I 61 W/m 7,8 C 8,9 C 5,1 km/h (1 Bft) 99,30 %
29.10.2015 10:00 9,2 C 91 % 1017,7 hPa 0,0 l/m 2,2 km/h (1 Bft) W 0,00 h 0,026 mm 0,4 UV-I 88 W/m 7,8 C 9,2 C 4,9 km/h (1 Bft) 98,94 %
29.10.2015 11:00 9,8 C 89 % 1018,1 hPa 0,0 l/m 2,8 km/h (1 Bft) W 0,00 h 0,051 mm 0,8 UV-I 166 W/m 7,9 C 9,8 C 7,1 km/h (2 Bft) 99,43 %
29.10.2015 12:00 10,1 C 86 % 1018,5 hPa 0,0 l/m 3,1 km/h (1 Bft) W 0,00 h 0,076 mm 0,8 UV-I 161 W/m 7,9 C 10,1 C 7,9 km/h (2 Bft) 99,49 %
29.10.2015 13:00 10,2 C 86 % 1018,9 hPa 0,0 l/m 2,4 km/h (1 Bft) W-SW 0,00 h 0,076 mm 0,5 UV-I 108 W/m 7,9 C 10,2 C 6,4 km/h (2 Bft) 99,01 %
29.10.2015 14:00 10,3 C 85 % 1019,3 hPa 0,0 l/m 2,8 km/h (1 Bft) N 0,00 h 0,051 mm 0,5 UV-I 127 W/m 7,8 C 10,3 C 7,0 km/h (2 Bft) 99,36 %
29.10.2015 15:00 9,9 C 86 % 1019,9 hPa 0,0 l/m 1,2 km/h (1 Bft) N 0,00 h 0,051 mm 0,0 UV-I 36 W/m 7,8 C 9,9 C 3,5 km/h (1 Bft) 99,02 %
29.10.2015 16:00 9,7 C 88 % 1020,6 hPa 0,0 l/m 0,6 km/h (0 Bft) N-NO 0,00 h 0,025 mm 0,0 UV-I 10 W/m 7,7 C 9,7 C 2,3 km/h (1 Bft) 98,86 %
29.10.2015 17:00 9,4 C 89 % 1021,2 hPa 0,0 l/m 0,3 km/h (0 Bft) N 0,00 h 0,000 mm 0,0 UV-I 0 W/m 7,7 C 9,4 C 1,6 km/h (1 Bft) 98,87 %
29.10.2015 18:00 9,3 C 89 % 1022,0 hPa 0,0 l/m 0,1 km/h (0 Bft) N 0,00 h 0,000 mm 0,0 UV-I 0 W/m 7,6 C 9,3 C 1,2 km/h (1 Bft) 98,80 %
29.10.2015 19:00 9,2 C 90 % 1022,5 hPa 0,0 l/m 0,5 km/h (0 Bft) W 0,00 h 0,000 mm 0,0 UV-I 0 W/m 7,6 C 9,2 C 2,3 km/h (1 Bft) 98,99 %
29.10.2015 20:00 9,2 C 89 % 1023,1 hPa 0,0 l/m 0,2 km/h (0 Bft) N 0,00 h 0,000 mm 0,0 UV-I 0 W/m 7,6 C 9,2 C 1,3 km/h (1 Bft) 98,71 %
29.10.2015 21:00 9,0 C 90 % 1023,4 hPa 0,0 l/m 0,1 km/h (0 Bft) N 0,00 h 0,000 mm 0,0 UV-I 0 W/m 7,4 C 9,0 C 1,2 km/h (1 Bft) 98,93 %
29.10.2015 22:00 8,8 C 91 % 1023,6 hPa 0,0 l/m 0,1 km/h (0 Bft) N 0,00 h 0,000 mm 0,0 UV-I 0 W/m 7,4 C 8,8 C 1,5 km/h (1 Bft) 98,92 %
29.10.2015 23:00 8,6 C 92 % 1023,9 hPa 0,0 l/m 0,0 km/h (0 Bft) N 0,00 h 0,000 mm 0,0 UV-I 0 W/m 7,3 C 8,6 C 0,1 km/h (0 Bft) 98,80 %
30.10.2015 00:00 8,4 C 93 % 1024,1 hPa 0,0 l/m 0,0 km/h (0 Bft) N 0,00 h 0,000 mm 0,0 UV-I 0 W/m 7,4 C 8,4 C 0,4 km/h (0 Bft) 99,58 %
30.10.2015 01:00 8,5 C 92 % 1024,5 hPa 0,0 l/m 0,3 km/h (0 Bft) N 0,00 h 0,000 mm 0,0 UV-I 0 W/m 7,2 C 8,5 C 1,3 km/h (1 Bft) 99,09 %
30.10.2015 02:00 8,2 C 93 % 1025,0 hPa 0,0 l/m 0,2 km/h (0 Bft) N 0,00 h 0,000 mm 0,0 UV-I 0 W/m 7,1 C 8,2 C 1,1 km/h (0 Bft) 99,00 %
30.10.2015 03:00 8,3 C 93 % 1025,1 hPa 0,0 l/m 0,4 km/h (0 Bft) N 0,00 h 0,000 mm 0,0 UV-I 0 W/m 7,2 C 8,3 C 2,0 km/h (1 Bft) 99,07 %
30.10.2015 04:00 8,3 C 93 % 1025,4 hPa 0,0 l/m 0,2 km/h (0 Bft) N 0,00 h 0,000 mm 0,0 UV-I 0 W/m 7,3 C 8,3 C 1,5 km/h (1 Bft) 98,56 %
30.10.2015 05:00 8,3 C 93 % 1025,7 hPa 0,0 l/m 0,9 km/h (0 Bft) O-NO 0,00 h 0,000 mm 0,0 UV-I 0 W/m 7,3 C 8,3 C 2,8 km/h (1 Bft) 98,99 %
30.10.2015 06:00 8,2 C 93 % 1025,6 hPa 0,0 l/m 1,5 km/h (1 Bft) O-NO 0,00 h 0,000 mm 0,0 UV-I 3 W/m 7,2 C 8,2 C 3,6 km/h (1 Bft) 98,79 %
30.10.2015 07:00 8,4 C 92 % 1025,8 hPa 0,0 l/m 3,5 km/h (1 Bft) O-NO 0,00 h 0,000 mm 0,0 UV-I 23 W/m 7,2 C 8,4 C 7,8 km/h (2 Bft) 98,81 %
30.10.2015 08:00 8,7 C 90 % 1026,1 hPa 0,0 l/m 4,7 km/h (1 Bft) O-NO 0,00 h 0,025 mm 0,0 UV-I 60 W/m 7,2 C 8,7 C 9,7 km/h (2 Bft) 98,87 %
30.10.2015 09:00 9,3 C 88 % 1026,3 hPa 0,0 l/m 4,4 km/h (1 Bft) O 0,00 h 0,026 mm 0,0 UV-I 83 W/m 7,5 C 9,3 C 11,0 km/h (2 Bft) 98,58 %
30.10.2015 10:00 9,7 C 88 % 1026,6 hPa 0,0 l/m 3,9 km/h (1 Bft) O 0,00 h 0,051 mm 0,5 UV-I 97 W/m 7,8 C 9,7 C 10,3 km/h (2 Bft) 99,00 %
30.10.2015 11:00 10,0 C 89 % 1026,8 hPa 0,0 l/m 3,7 km/h (1 Bft) NO 0,00 h 0,050 mm 0,6 UV-I 107 W/m 8,2 C 10,0 C 9,0 km/h (2 Bft) 99,15 %
30.10.2015 12:00 10,2 C 86 % 1026,5 hPa 0,0 l/m 7,9 km/h (2 Bft) O 0,00 h 0,051 mm 0,4 UV-I 81 W/m 7,9 C 9,0 C 15,4 km/h (3 Bft) 98,78 %
30.10.2015 13:00 10,3 C 86 % 1026,3 hPa 0,0 l/m 10,1 km/h (2 Bft) O 0,00 h 0,051 mm 0,0 UV-I 78 W/m 8,0 C 7,9 C 18,1 km/h (3 Bft) 99,07 %
30.10.2015 14:00 10,3 C 85 % 1026,4 hPa 0,0 l/m 9,9 km/h (2 Bft) O 0,00 h 0,051 mm 0,0 UV-I 57 W/m 7,9 C 8,0 C 18,0 km/h (3 Bft) 98,77 %
30.10.2015 15:00 10,2 C 85 % 1026,8 hPa 0,0 l/m 8,2 km/h (2 Bft) O-NO 0,00 h 0,051 mm 0,0 UV-I 35 W/m 7,9 C 9,1 C 17,6 km/h (3 Bft) 98,55 %
30.10.2015 16:00 9,8 C 87 % 1027,2 hPa 0,0 l/m 6,9 km/h (2 Bft) O-NO 0,00 h 0,025 mm 0,0 UV-I 10 W/m 7,8 C 9,3 C 15,4 km/h (3 Bft) 98,87 %
30.10.2015 17:00 9,6 C 89 % 1027,3 hPa 0,0 l/m 6,7 km/h (2 Bft) O 0,00 h 0,025 mm 0,0 UV-I 0 W/m 7,9 C 9,2 C 13,4 km/h (3 Bft) 99,07 %
30.10.2015 18:00 9,6 C 89 % 1027,5 hPa 0,0 l/m 8,4 km/h (2 Bft) O 0,00 h 0,000 mm 0,0 UV-I 0 W/m 7,9 C 8,2 C 14,6 km/h (3 Bft) 98,72 %
30.10.2015 19:00 9,7 C 90 % 1027,8 hPa 0,0 l/m 5,6 km/h (1 Bft) O 0,00 h 0,000 mm 0,0 UV-I 0 W/m 8,1 C 9,0 C 11,1 km/h (2 Bft) 99,78 %
30.10.2015 20:00 9,6 C 91 % 1028,1 hPa 0,0 l/m 4,6 km/h (1 Bft) O-NO 0,00 h 0,000 mm 0,0 UV-I 0 W/m 8,1 C 9,3 C 9,5 km/h (2 Bft) 99,02 %
30.10.2015 21:00 9,5 C 90 % 1028,5 hPa 0,0 l/m 10,6 km/h (2 Bft) O 0,00 h 0,000 mm 0,0 UV-I 0 W/m 7,9 C 6,7 C 20,8 km/h (4 Bft) 99,22 %
30.10.2015 22:00 9,2 C 90 % 1028,6 hPa 0,0 l/m 11,1 km/h (2 Bft) O 0,00 h 0,026 mm 0,0 UV-I 0 W/m 7,6 C 6,1 C 19,1 km/h (3 Bft) 99,07 %
30.10.2015 23:00 8,9 C 90 % 1028,6 hPa 0,0 l/m 11,3 km/h (2 Bft) O 0,00 h 0,025 mm 0,0 UV-I 0 W/m 7,4 C 5,8 C 17,9 km/h (3 Bft) 98,65 %
31.10.2015 00:00 8,5 C 91 % 1028,4 hPa 0,0 l/m 13,0 km/h (3 Bft) O 0,00 h 0,000 mm 0,0 UV-I 0 W/m 7,1 C 4,4 C 19,3 km/h (3 Bft) 98,66 %
31.10.2015 01:00 8,1 C 91 % 1028,3 hPa 0,0 l/m 11,6 km/h (2 Bft) O-NO 0,00 h 0,025 mm 0,0 UV-I 0 W/m 6,7 C 4,6 C 17,8 km/h (3 Bft) 98,86 %
31.10.2015 02:00 7,6 C 92 % 1028,1 hPa 0,0 l/m 11,7 km/h (2 Bft) O 0,00 h 0,000 mm 0,0 UV-I 0 W/m 6,4 C 4,1 C 18,4 km/h (3 Bft) 98,72 %
31.10.2015 03:00 7,3 C 92 % 1027,8 hPa 0,0 l/m 11,1 km/h (2 Bft) O 0,00 h 0,000 mm 0,0 UV-I 0 W/m 6,1 C 4,0 C 17,4 km/h (3 Bft) 98,86 %
31.10.2015 04:00 7,0 C 93 % 1027,8 hPa 0,0 l/m 10,3 km/h (2 Bft) O 0,00 h 0,000 mm 0,0 UV-I 0 W/m 5,9 C 4,2 C 17,0 km/h (3 Bft) 98,60 %
31.10.2015 05:00 6,3 C 93 % 1027,7 hPa 0,0 l/m 6,6 km/h (2 Bft) O 0,00 h 0,000 mm 0,0 UV-I 0 W/m 5,3 C 5,5 C 11,6 km/h (2 Bft) 98,99 %
31.10.2015 06:00 5,6 C 94 % 1027,9 hPa 0,0 l/m 5,9 km/h (2 Bft) O-NO 0,03 h 0,000 mm 0,0 UV-I 8 W/m 4,7 C 5,1 C 9,7 km/h (2 Bft) 99,44 %
31.10.2015 07:00 5,6 C 93 % 1028,3 hPa 0,0 l/m 7,3 km/h (2 Bft) O 0,32 h 0,000 mm 0,0 UV-I 54 W/m 4,6 C 4,6 C 12,1 km/h (2 Bft) 98,86 %
31.10.2015 08:00 6,7 C 90 % 1028,7 hPa 0,0 l/m 7,9 km/h (2 Bft) O-NO 1,00 h 0,026 mm 0,5 UV-I 178 W/m 5,2 C 5,3 C 12,4 km/h (3 Bft) 98,73 %
31.10.2015 09:00 8,1 C 84 % 1028,9 hPa 0,0 l/m 11,7 km/h (2 Bft) O 1,00 h 0,076 mm 0,9 UV-I 311 W/m 5,6 C 4,6 C 17,3 km/h (3 Bft) 98,65 %
31.10.2015 10:00 10,0 C 77 % 1028,9 hPa 0,0 l/m 10,4 km/h (2 Bft) O 1,00 h 0,152 mm 1,4 UV-I 408 W/m 6,1 C 7,4 C 15,8 km/h (3 Bft) 98,40 %
31.10.2015 11:00 11,8 C 70 % 1028,9 hPa 0,0 l/m 12,5 km/h (3 Bft) O 1,00 h 0,204 mm 1,7 UV-I 455 W/m 6,4 C 8,5 C 18,3 km/h (3 Bft) 98,09 %
31.10.2015 12:00 13,4 C 65 % 1028,5 hPa 0,0 l/m 13,5 km/h (3 Bft) O 1,00 h 0,254 mm 1,6 UV-I 451 W/m 6,9 C 9,9 C 19,8 km/h (4 Bft) 99,34 %
31.10.2015 13:00 14,8 C 62 % 1028,0 hPa 0,0 l/m 10,6 km/h (2 Bft) O 1,00 h 0,279 mm 1,3 UV-I 389 W/m 7,5 C 12,7 C 16,3 km/h (3 Bft) 99,08 %
31.10.2015 14:00 15,2 C 59 % 1028,0 hPa 0,0 l/m 10,0 km/h (2 Bft) O 1,00 h 0,254 mm 0,7 UV-I 286 W/m 7,2 C 13,4 C 15,8 km/h (3 Bft) 99,52 %
31.10.2015 15:00 14,8 C 57 % 1028,1 hPa 0,0 l/m 14,4 km/h (3 Bft) O-NO 0,97 h 0,203 mm 0,0 UV-I 137 W/m 6,5 C 11,2 C 21,5 km/h (4 Bft) 99,25 %
31.10.2015 16:00 13,7 C 60 % 1028,5 hPa 0,0 l/m 14,9 km/h (3 Bft) O-NO 0,05 h 0,153 mm 0,0 UV-I 22 W/m 6,0 C 9,7 C 21,7 km/h (4 Bft) 98,74 %
31.10.2015 17:00 12,7 C 64 % 1029,2 hPa 0,0 l/m 15,2 km/h (3 Bft) O 0,00 h 0,076 mm 0,0 UV-I 0 W/m 6,0 C 8,4 C 22,1 km/h (4 Bft) 99,22 %
31.10.2015 18:00 11,8 C 67 % 1029,8 hPa 0,0 l/m 15,4 km/h (3 Bft) O-NO 0,00 h 0,076 mm 0,0 UV-I 0 W/m 5,9 C 7,3 C 21,9 km/h (4 Bft) 99,32 %
31.10.2015 19:00 10,9 C 70 % 1030,1 hPa 0,0 l/m 15,8 km/h (3 Bft) O 0,00 h 0,051 mm 0,0 UV-I 0 W/m 5,8 C 6,0 C 22,3 km/h (4 Bft) 98,20 %
31.10.2015 20:00 10,0 C 74 % 1030,3 hPa 0,0 l/m 14,9 km/h (3 Bft) O 0,00 h 0,051 mm 0,0 UV-I 0 W/m 5,6 C 5,3 C 21,1 km/h (4 Bft) 99,14 %
31.10.2015 21:00 9,4 C 75 % 1030,7 hPa 0,0 l/m 13,0 km/h (3 Bft) O 0,00 h 0,050 mm 0,0 UV-I 0 W/m 5,2 C 5,4 C 19,4 km/h (3 Bft) 99,09 %
31.10.2015 22:00 8,8 C 76 % 1030,8 hPa 0,0 l/m 10,7 km/h (2 Bft) O 0,00 h 0,026 mm 0,0 UV-I 0 W/m 4,7 C 6,0 C 16,4 km/h (3 Bft) 95,70 %
31.10.2015 23:00 8,3 C 76 % 1030,9 hPa 0,0 l/m 9,7 km/h (2 Bft) O 0,00 h 0,025 mm 0,0 UV-I 0 W/m 4,4 C 6,0 C 15,6 km/h (3 Bft) 98,97 %
01.11.2015 00:00 8,1 C 77 % 1031,1 hPa 0,0 l/m 10,1 km/h (2 Bft) O-NO 0,00 h 0,000 mm 0,0 UV-I 0 W/m 4,2 C 5,5 C 15,6 km/h (3 Bft) 99,40 %
01.11.2015 01:00 7,5 C 78 % 1031,1 hPa 0,0 l/m 8,0 km/h (2 Bft) O 0,00 h 0,025 mm 0,0 UV-I 0 W/m 3,9 C 6,2 C 13,1 km/h (3 Bft) 99,45 %
01.11.2015 02:00 7,0 C 78 % 1030,9 hPa 0,0 l/m 6,2 km/h (2 Bft) O 0,00 h 0,026 mm 0,0 UV-I 0 W/m 3,5 C 6,5 C 10,4 km/h (2 Bft) 99,00 %
01.11.2015 03:00 6,7 C 78 % 1030,9 hPa 0,0 l/m 4,8 km/h (1 Bft) O-NO 0,00 h 0,025 mm 0,0 UV-I 0 W/m 3,1 C 6,4 C 8,0 km/h (2 Bft) 99,24 %
01.11.2015 04:00 6,2 C 80 % 1030,9 hPa 0,0 l/m 3,1 km/h (1 Bft) O 0,00 h 0,026 mm 0,0 UV-I 0 W/m 3,0 C 6,2 C 5,2 km/h (1 Bft) 99,30 %
01.11.2015 05:00 5,4 C 83 % 1031,0 hPa 0,0 l/m 4,4 km/h (1 Bft) O 0,00 h 0,000 mm 0,0 UV-I 0 W/m 2,7 C 5,3 C 7,3 km/h (2 Bft) 99,09 %
01.11.2015 06:00 5,5 C 82 % 1031,2 hPa 0,0 l/m 3,9 km/h (1 Bft) O-NO 0,02 h 0,000 mm 0,0 UV-I 7 W/m 2,7 C 5,4 C 6,5 km/h (2 Bft) 98,87 %
01.11.2015 07:00 6,0 C 79 % 1031,7 hPa 0,0 l/m 7,0 km/h (2 Bft) O-NO 0,20 h 0,000 mm 0,0 UV-I 44 W/m 2,7 C 5,2 C 10,6 km/h (2 Bft) 98,99 %
01.11.2015 08:00 7,8 C 72 % 1032,0 hPa 0,0 l/m 9,2 km/h (2 Bft) O 1,00 h 0,025 mm 0,5 UV-I 190 W/m 3,1 C 5,7 C 13,3 km/h (3 Bft) 99,03 %
01.11.2015 09:00 9,8 C 61 % 1032,0 hPa 0,0 l/m 10,1 km/h (2 Bft) O 1,00 h 0,102 mm 0,9 UV-I 329 W/m 2,8 C 7,4 C 14,7 km/h (3 Bft) 99,29 %
01.11.2015 10:00 11,7 C 53 % 1032,0 hPa 0,0 l/m 9,2 km/h (2 Bft) O 1,00 h 0,203 mm 1,5 UV-I 424 W/m 2,5 C 9,9 C 14,0 km/h (3 Bft) 97,89 %
01.11.2015 11:00 13,6 C 47 % 1031,9 hPa 0,0 l/m 9,2 km/h (2 Bft) O 1,00 h 0,254 mm 1,8 UV-I 470 W/m 2,4 C 12,0 C 13,8 km/h (3 Bft) 97,93 %
01.11.2015 12:00 14,9 C 42 % 1031,5 hPa 0,0 l/m 8,4 km/h (2 Bft) O 1,00 h 0,305 mm 1,7 UV-I 465 W/m 2,0 C 13,8 C 13,8 km/h (3 Bft) 98,77 %
01.11.2015 13:00 15,6 C 40 % 1031,0 hPa 0,0 l/m 10,1 km/h (2 Bft) O 1,00 h 0,304 mm 1,3 UV-I 405 W/m 2,0 C 13,8 C 15,6 km/h (3 Bft) 99,58 %
01.11.2015 14:00 15,5 C 40 % 1030,7 hPa 0,0 l/m 12,0 km/h (2 Bft) O 1,00 h 0,305 mm 0,7 UV-I 301 W/m 2,0 C 12,9 C 17,8 km/h (3 Bft) 99,15 %
01.11.2015 15:00 14,8 C 43 % 1030,7 hPa 0,0 l/m 5,9 km/h (2 Bft) O 1,00 h 0,254 mm 0,0 UV-I 139 W/m 2,5 C 14,4 C 9,8 km/h (2 Bft) 99,23 %
01.11.2015 16:00 12,6 C 49 % 1030,5 hPa 0,0 l/m 7,7 km/h (2 Bft) O 0,08 h 0,127 mm 0,0 UV-I 20 W/m 2,1 C 11,7 C 11,7 km/h (2 Bft) 99,23 %
01.11.2015 17:00 11,2 C 48 % 1030,5 hPa 0,0 l/m 5,5 km/h (1 Bft) O 0,00 h 0,051 mm 0,0 UV-I 0 W/m 0,7 C 11,0 C 9,2 km/h (2 Bft) 99,63 %
01.11.2015 18:00 9,5 C 52 % 1030,7 hPa 0,0 l/m 4,2 km/h (1 Bft) O-NO 0,00 h 0,051 mm 0,0 UV-I 0 W/m 0,3 C 9,4 C 6,9 km/h (2 Bft) 99,27 %
01.11.2015 19:00 8,5 C 55 % 1030,7 hPa 0,0 l/m 3,2 km/h (1 Bft) O 0,00 h 0,025 mm 0,0 UV-I 0 W/m -0,0 C 8,4 C 5,3 km/h (1 Bft) 98,57 %
01.11.2015 20:00 5,9 C 65 % 1030,7 hPa 0,0 l/m 0,4 km/h (0 Bft) O 0,00 h 0,026 mm 0,0 UV-I 0 W/m -0,2 C 5,9 C 1,1 km/h (0 Bft) 98,69 %
01.11.2015 21:00 4,9 C 69 % 1030,7 hPa 0,0 l/m 0,7 km/h (0 Bft) O-NO 0,00 h 0,000 mm 0,0 UV-I 0 W/m -0,2 C 4,9 C 1,7 km/h (1 Bft) 99,27 %
01.11.2015 22:00 5,1 C 67 % 1030,7 hPa 0,0 l/m 1,6 km/h (1 Bft) O 0,00 h 0,000 mm 0,0 UV-I 0 W/m -0,4 C 5,1 C 2,9 km/h (1 Bft) 98,92 %
01.11.2015 23:00 3,4 C 74 % 1030,8 hPa 0,0 l/m 0,8 km/h (0 Bft) O-NO 0,00 h 0,000 mm 0,0 UV-I 0 W/m -0,8 C 3,4 C 1,8 km/h (1 Bft) 99,27 %
Min-Datum _ 01.11.15 01.11.15 28.10.15 - 27.10.15 - - - - - 01.11.15 31.10.15 27.10.15 31.10.15
_ Min-Zeit 23:51 13:25 15:05 - 22:40 - - - - - 23:42 04:45 22:40 22:25
Minimum _ 1,9 C 38 % 1011,3 hPa - 0,0 km/h (0 Bft) - - - - - -1,2 C 1,3 C 0,0 km/h (0 Bft) 28,57 %
Max-Datum _ 01.11.15 28.10.15 01.11.15 26.10.15 31.10.15 - 26.10.15 01.11.15 26.10.15 27.10.15 27.10.15 01.11.15 31.10.15 26.10.15
_ Max-Zeit 13:43 01:40 09:24 00:00 19:36 - 10:30 12:01 11:25 13:00 15:20 13:35 19:31 00:10
Maximum _ 15,8 C 98 % 1032,2 hPa 0,0 l/m 20,8 km/h
O (4 Bft)
- 0,17 h 0,305 mm 1,8 UV-I 560 W/m 10,2 C 15,7 C 32,2 km/h
O (5 Bft)
100,00 %
Durchschnitt _ 9,3 C 84 % 1022,3 hPa #0,0 l/m 6,4 km/h (2 Bft) O #30:45 h #8,560 mm 1,0 UV-I 170 W/m 6,5 C 8,1 C 11,6 km/h (2 Bft) 99,07 %